collegedegrees.com alexa rank chart, collegedegrees.com alexa rank daily changes

collegedegrees.com alexa rank chart, collegedegrees.com alexa rank daily changes

collegedegrees.com
Actual rank:
317 472

RANK HISTORY

Date Rank Diff
2017/12/12 317 472 -4 204
2017/12/11 321 676 -6 806
2017/12/10 328 482 +4 067
2017/12/09 324 415 +3 418
2017/12/08 320 997 +9 472
2017/12/07 311 525 +5 718
2017/12/06 305 807 -7 226
2017/12/05 313 033 -6 961
2017/12/04 319 994 +2 565
2017/12/03 317 429 -19
2017/12/02 317 448 +2 859
2017/12/01 314 589 -1 470
2017/11/30 316 059 -29 293
2017/11/29 345 352 -8 448
2017/11/28 353 800 -1 769
2017/11/27 355 569 +8 273
2017/11/26 347 296 -705
2017/11/25 348 001 -10 157
2017/11/24 358 158 +5 939
2017/11/23 352 219 +2 445
2017/11/22 349 774 -6 569
2017/11/21 356 343 +32 042
2017/11/20 324 301 -6 675
2017/11/19 330 976 -27 783
2017/11/18 358 759 -1 677
2017/11/17 360 436 -5 494
2017/11/16 365 930 +3 738
2017/11/15 362 192 +3 958
2017/11/14 358 234 +427
2017/11/13 357 807 +26 987
2017/11/12 330 820 +12 392
2017/11/11 318 428 +4 650
2017/11/10 313 778 -1 717
2017/11/09 315 495 -1 527
2017/11/08 317 022 -3 284
2017/11/07 320 306 +12 015
2017/11/06 308 291 -3 853
2017/11/05 312 144 +715
2017/11/04 311 429 -5 192
2017/11/03 316 621 +10 698
2017/11/02 305 923 -4 524
2017/11/01 310 447 +3 919
2017/10/31 306 528 -3 412
2017/10/30 309 940 +2 175
2017/10/29 307 765 +4 744
2017/10/28 303 021 +1 492
2017/10/27 301 529 -6 674
2017/10/26 308 203 +2 134
2017/10/25 306 069 -383
2017/10/24 306 452 +2 178
2017/10/23 304 274 -8 074
2017/10/22 312 348 +16 174
2017/10/21 296 174 -21 171
2017/10/20 317 345 +4 015
2017/10/19 313 330 +4 166
2017/10/18 309 164 +4 318
2017/10/17 304 846 -2 143
2017/10/16 306 989 -4 813
2017/10/14 311 802 +4 390
2017/10/13 307 412

WIDGET FOR YOUR SITE

DOMAINS WITH THE NEAREST RANK

Domain Rank
urldimadima4download.blogspot.com 317 467
nameurbaby.com 317 468
laopinionsemanario.com.ar 317 469
unifil.br 317 470
diyaudio.pl 317 471
collegedegrees.com 317 472
fcrs.edu.br 317 473
welovebundles.ru 317 474
mindai.com 317 475
hotvoip.com 317 476
fatporntube.com 317 477

DOMAINS WITH THE NEAREST RANK BY TLD .com

Domain Rank
kurtkinetic.com 317 461
testmadina.com 317 463
arecontvision.com 317 464
ads2publish.com 317 466
nameurbaby.com 317 468
collegedegrees.com 317 472
mindai.com 317 475
hotvoip.com 317 476
fatporntube.com 317 477
johnjamessite.com 317 478
lestoooppp.com 317 479